sensor_id;sensor_type;location;lat;lon;timestamp;noise_LAeq;noise_LA_min;noise_LA_max;noise_LA01;noise_LA95
57439;Laerm;43282;47.188;8.896;2023-07-31T00:01:24;40.25;37.32;43.72;;
57439;Laerm;43282;47.188;8.896;2023-07-31T00:03:50;42.99;36.69;57.65;;
57439;Laerm;43282;47.188;8.896;2023-07-31T00:06:15;40.38;36.45;44.76;;
57439;Laerm;43282;47.188;8.896;2023-07-31T00:08:41;40.55;36.20;43.49;;
57439;Laerm;43282;47.188;8.896;2023-07-31T00:11:06;39.62;36.45;44.07;;
57439;Laerm;43282;47.188;8.896;2023-07-31T00:13:31;40.70;37.32;45.14;;
57439;Laerm;43282;47.188;8.896;2023-07-31T00:15:57;41.17;37.88;45.20;;
57439;Laerm;43282;47.188;8.896;2023-07-31T00:18:22;40.82;35.94;44.69;;
57439;Laerm;43282;47.188;8.896;2023-07-31T00:20:47;39.90;36.20;44.47;;
57439;Laerm;43282;47.188;8.896;2023-07-31T00:23:13;40.85;37.32;54.34;;
57439;Laerm;43282;47.188;8.896;2023-07-31T00:25:38;40.31;36.69;43.29;;
57439;Laerm;43282;47.188;8.896;2023-07-31T00:28:03;41.17;37.12;44.94;;
57439;Laerm;43282;47.188;8.896;2023-07-31T00:30:32;43.90;37.52;60.80;;
57439;Laerm;43282;47.188;8.896;2023-07-31T00:32:57;39.52;35.94;43.63;;
57439;Laerm;43282;47.188;8.896;2023-07-31T00:35:22;40.41;36.91;45.57;;
57439;Laerm;43282;47.188;8.896;2023-07-31T00:37:48;39.40;34.69;42.22;;
57439;Laerm;43282;47.188;8.896;2023-07-31T00:40:13;39.59;33.90;47.76;;
57439;Laerm;43282;47.188;8.896;2023-07-31T00:42:39;40.08;36.20;43.58;;
57439;Laerm;43282;47.188;8.896;2023-07-31T00:45:04;40.02;36.91;42.93;;
57439;Laerm;43282;47.188;8.896;2023-07-31T00:47:30;41.66;36.20;46.20;;
57439;Laerm;43282;47.188;8.896;2023-07-31T00:49:55;41.76;37.32;45.86;;
57439;Laerm;43282;47.188;8.896;2023-07-31T00:52:20;42.49;37.52;51.28;;
57439;Laerm;43282;47.188;8.896;2023-07-31T00:54:46;43.26;36.98;58.32;;
57439;Laerm;43282;47.188;8.896;2023-07-31T00:57:11;41.31;36.91;55.36;;
57439;Laerm;43282;47.188;8.896;2023-07-31T00:59:36;45.57;36.69;62.00;;
57439;Laerm;43282;47.188;8.896;2023-07-31T01:02:02;41.25;35.94;47.86;;
57439;Laerm;43282;47.188;8.896;2023-07-31T01:04:28;41.13;36.20;49.52;;
57439;Laerm;43282;47.188;8.896;2023-07-31T01:09:37;40.04;36.69;43.24;;
57439;Laerm;43282;47.188;8.896;2023-07-31T01:12:05;45.77;38.05;59.84;;
57439;Laerm;43282;47.188;8.896;2023-07-31T01:14:32;40.79;36.45;48.74;;
57439;Laerm;43282;47.188;8.896;2023-07-31T01:16:57;43.35;35.31;58.78;;
57439;Laerm;43282;47.188;8.896;2023-07-31T01:19:23;39.66;35.36;43.24;;
57439;Laerm;43282;47.188;8.896;2023-07-31T01:24:42;39.93;35.66;42.53;;
57439;Laerm;43282;47.188;8.896;2023-07-31T01:27:15;40.65;36.20;44.54;;
57439;Laerm;43282;47.188;8.896;2023-07-31T01:29:55;40.94;38.21;43.04;;
57439;Laerm;43282;47.188;8.896;2023-07-31T01:32:21;44.19;36.45;61.39;;
57439;Laerm;43282;47.188;8.896;2023-07-31T01:34:47;44.18;34.69;61.21;;
57439;Laerm;43282;47.188;8.896;2023-07-31T01:37:13;44.32;35.94;59.87;;
57439;Laerm;43282;47.188;8.896;2023-07-31T01:39:39;40.94;36.69;44.87;;
57439;Laerm;43282;47.188;8.896;2023-07-31T01:42:04;40.82;35.66;45.94;;
57439;Laerm;43282;47.188;8.896;2023-07-31T01:44:29;40.49;33.90;45.33;;
57439;Laerm;43282;47.188;8.896;2023-07-31T01:46:55;44.90;35.66;59.33;;
57439;Laerm;43282;47.188;8.896;2023-07-31T01:49:20;41.17;34.31;47.20;;
57439;Laerm;43282;47.188;8.896;2023-07-31T01:51:45;40.67;35.94;43.51;;
57439;Laerm;43282;47.188;8.896;2023-07-31T01:54:11;40.73;36.69;46.87;;
57439;Laerm;43282;47.188;8.896;2023-07-31T01:56:36;44.61;38.05;59.76;;
57439;Laerm;43282;47.188;8.896;2023-07-31T01:59:02;40.93;36.91;45.89;;
57439;Laerm;43282;47.188;8.896;2023-07-31T02:01:27;40.97;36.69;47.79;;
57439;Laerm;43282;47.188;8.896;2023-07-31T02:03:52;40.42;34.69;46.20;;
57439;Laerm;43282;47.188;8.896;2023-07-31T02:06:19;44.86;36.91;60.59;;
57439;Laerm;43282;47.188;8.896;2023-07-31T02:08:44;46.16;38.05;62.34;;
57439;Laerm;43282;47.188;8.896;2023-07-31T02:11:09;45.29;37.70;61.23;;
57439;Laerm;43282;47.188;8.896;2023-07-31T02:13:35;40.90;37.12;43.04;;
57439;Laerm;43282;47.188;8.896;2023-07-31T02:16:00;40.70;37.52;42.82;;
57439;Laerm;43282;47.188;8.896;2023-07-31T02:18:26;41.11;37.12;45.23;;
57439;Laerm;43282;47.188;8.896;2023-07-31T02:20:51;43.93;37.32;60.78;;
57439;Laerm;43282;47.188;8.896;2023-07-31T02:23:20;41.28;37.52;44.83;;
57439;Laerm;43282;47.188;8.896;2023-07-31T02:25:45;40.88;34.69;46.50;;
57439;Laerm;43282;47.188;8.896;2023-07-31T02:28:11;41.26;36.91;47.44;;
57439;Laerm;43282;47.188;8.896;2023-07-31T02:30:36;39.96;35.94;44.76;;
57439;Laerm;43282;47.188;8.896;2023-07-31T02:33:02;40.17;35.36;50.24;;
57439;Laerm;43282;47.188;8.896;2023-07-31T02:35:27;42.10;37.52;47.59;;
57439;Laerm;43282;47.188;8.896;2023-07-31T02:37:52;42.69;38.05;54.67;;
57439;Laerm;43282;47.188;8.896;2023-07-31T02:40:18;42.96;37.12;53.67;;
57439;Laerm;43282;47.188;8.896;2023-07-31T02:42:43;44.66;38.05;58.64;;
57439;Laerm;43282;47.188;8.896;2023-07-31T02:45:08;49.05;39.08;65.91;;
57439;Laerm;43282;47.188;8.896;2023-07-31T02:47:34;47.03;37.70;63.56;;
57439;Laerm;43282;47.188;8.896;2023-07-31T02:49:59;52.19;39.92;68.55;;
57439;Laerm;43282;47.188;8.896;2023-07-31T02:52:25;44.23;38.05;57.66;;
57439;Laerm;43282;47.188;8.896;2023-07-31T02:54:50;44.00;38.05;57.80;;
57439;Laerm;43282;47.188;8.896;2023-07-31T02:57:16;45.54;37.12;62.55;;
57439;Laerm;43282;47.188;8.896;2023-07-31T02:59:41;45.77;39.70;62.58;;
57439;Laerm;43282;47.188;8.896;2023-07-31T03:02:06;45.94;39.81;62.00;;
57439;Laerm;43282;47.188;8.896;2023-07-31T03:04:32;45.52;39.34;60.90;;
57439;Laerm;43282;47.188;8.896;2023-07-31T03:06:57;51.02;39.34;68.16;;
57439;Laerm;43282;47.188;8.896;2023-07-31T03:09:22;45.34;39.92;61.63;;
57439;Laerm;43282;47.188;8.896;2023-07-31T03:11:47;50.02;39.92;67.23;;
57439;Laerm;43282;47.188;8.896;2023-07-31T03:14:13;51.09;39.92;73.01;;
57439;Laerm;43282;47.188;8.896;2023-07-31T03:16:38;48.33;40.43;66.10;;
57439;Laerm;43282;47.188;8.896;2023-07-31T03:19:03;47.21;39.46;61.89;;
57439;Laerm;43282;47.188;8.896;2023-07-31T03:21:28;50.58;40.13;65.01;;
57439;Laerm;43282;47.188;8.896;2023-07-31T03:23:54;42.60;40.23;54.85;;
57439;Laerm;43282;47.188;8.896;2023-07-31T03:26:19;45.94;40.53;61.40;;
57439;Laerm;43282;47.188;8.896;2023-07-31T03:28:44;52.37;41.38;63.76;;
57439;Laerm;43282;47.188;8.896;2023-07-31T03:31:10;51.85;39.58;64.31;;
57439;Laerm;43282;47.188;8.896;2023-07-31T03:33:36;49.62;39.46;63.72;;
57439;Laerm;43282;47.188;8.896;2023-07-31T03:36:02;48.19;39.46;63.74;;
57439;Laerm;43282;47.188;8.896;2023-07-31T03:38:27;48.48;40.33;63.49;;
57439;Laerm;43282;47.188;8.896;2023-07-31T03:40:53;50.75;40.98;63.00;;
57439;Laerm;43282;47.188;8.896;2023-07-31T03:43:18;51.27;41.96;63.19;;
57439;Laerm;43282;47.188;8.896;2023-07-31T03:45:43;48.81;41.46;62.50;;
57439;Laerm;43282;47.188;8.896;2023-07-31T03:48:08;50.16;40.03;65.84;;
57439;Laerm;43282;47.188;8.896;2023-07-31T03:50:34;47.13;41.19;60.01;;
57439;Laerm;43282;47.188;8.896;2023-07-31T03:52:59;51.86;41.53;63.43;;
57439;Laerm;43282;47.188;8.896;2023-07-31T03:55:25;51.45;41.46;63.11;;
57439;Laerm;43282;47.188;8.896;2023-07-31T03:57:50;50.18;41.75;65.72;;
57439;Laerm;43282;47.188;8.896;2023-07-31T04:00:15;48.85;42.09;61.43;;
57439;Laerm;43282;47.188;8.896;2023-07-31T04:02:41;56.38;44.27;72.21;;
57439;Laerm;43282;47.188;8.896;2023-07-31T04:05:06;54.41;45.97;69.75;;
57439;Laerm;43282;47.188;8.896;2023-07-31T04:07:32;54.46;44.23;69.49;;
57439;Laerm;43282;47.188;8.896;2023-07-31T04:09:57;53.54;43.68;65.33;;
57439;Laerm;43282;47.188;8.896;2023-07-31T04:12:22;50.96;43.39;64.79;;
57439;Laerm;43282;47.188;8.896;2023-07-31T04:14:48;53.66;42.29;65.25;;
57439;Laerm;43282;47.188;8.896;2023-07-31T04:17:13;54.91;43.34;69.35;;
57439;Laerm;43282;47.188;8.896;2023-07-31T04:19:38;53.18;42.82;66.87;;
57439;Laerm;43282;47.188;8.896;2023-07-31T04:22:04;51.35;42.90;64.87;;
57439;Laerm;43282;47.188;8.896;2023-07-31T04:24:29;50.54;43.04;66.59;;
57439;Laerm;43282;47.188;8.896;2023-07-31T04:26:55;52.24;44.47;68.23;;
57439;Laerm;43282;47.188;8.896;2023-07-31T04:29:21;53.37;42.71;63.83;;
57439;Laerm;43282;47.188;8.896;2023-07-31T04:31:47;50.83;44.11;62.52;;
57439;Laerm;43282;47.188;8.896;2023-07-31T04:34:12;56.25;44.94;72.48;;
57439;Laerm;43282;47.188;8.896;2023-07-31T04:36:38;56.34;44.97;70.76;;
57439;Laerm;43282;47.188;8.896;2023-07-31T04:39:03;58.04;45.01;75.54;;
57439;Laerm;43282;47.188;8.896;2023-07-31T04:41:29;53.77;45.60;64.15;;
57439;Laerm;43282;47.188;8.896;2023-07-31T04:43:54;54.37;46.28;65.72;;
57439;Laerm;43282;47.188;8.896;2023-07-31T04:46:19;54.40;47.00;68.59;;
57439;Laerm;43282;47.188;8.896;2023-07-31T04:48:45;56.73;45.57;69.88;;
57439;Laerm;43282;47.188;8.896;2023-07-31T04:51:10;55.84;43.44;66.64;;
57439;Laerm;43282;47.188;8.896;2023-07-31T04:53:36;55.58;44.19;67.65;;
57439;Laerm;43282;47.188;8.896;2023-07-31T04:56:01;59.54;44.76;75.08;;
57439;Laerm;43282;47.188;8.896;2023-07-31T04:58:26;53.96;44.65;65.73;;
57439;Laerm;43282;47.188;8.896;2023-07-31T05:00:52;57.33;44.27;70.34;;
57439;Laerm;43282;47.188;8.896;2023-07-31T05:03:17;54.85;46.10;66.07;;
57439;Laerm;43282;47.188;8.896;2023-07-31T05:05:42;55.09;44.43;66.53;;
57439;Laerm;43282;47.188;8.896;2023-07-31T05:08:08;54.65;43.77;67.14;;
57439;Laerm;43282;47.188;8.896;2023-07-31T05:10:33;53.64;43.39;67.52;;
57439;Laerm;43282;47.188;8.896;2023-07-31T05:12:59;51.10;43.19;64.33;;
57439;Laerm;43282;47.188;8.896;2023-07-31T05:15:24;54.75;41.75;67.96;;
57439;Laerm;43282;47.188;8.896;2023-07-31T05:17:49;54.32;42.93;66.92;;
57439;Laerm;43282;47.188;8.896;2023-07-31T05:20:14;54.01;42.76;65.34;;
57439;Laerm;43282;47.188;8.896;2023-07-31T05:22:40;52.52;42.22;66.66;;
57439;Laerm;43282;47.188;8.896;2023-07-31T05:25:05;54.05;42.35;66.24;;
57439;Laerm;43282;47.188;8.896;2023-07-31T05:27:34;52.70;42.53;65.78;;
57439;Laerm;43282;47.188;8.896;2023-07-31T05:29:59;56.82;41.41;74.22;;
57439;Laerm;43282;47.188;8.896;2023-07-31T05:32:24;51.49;42.09;63.85;;
57439;Laerm;43282;47.188;8.896;2023-07-31T05:34:52;64.20;45.94;84.56;;
57439;Laerm;43282;47.188;8.896;2023-07-31T05:37:18;53.51;42.88;66.26;;
57439;Laerm;43282;47.188;8.896;2023-07-31T05:39:43;55.32;43.49;73.74;;
57439;Laerm;43282;47.188;8.896;2023-07-31T05:42:09;53.29;42.98;68.33;;
57439;Laerm;43282;47.188;8.896;2023-07-31T05:44:34;56.51;43.81;68.34;;
57439;Laerm;43282;47.188;8.896;2023-07-31T05:46:59;57.20;43.94;68.52;;
57439;Laerm;43282;47.188;8.896;2023-07-31T05:49:25;54.36;42.93;65.22;;
57439;Laerm;43282;47.188;8.896;2023-07-31T05:51:50;59.73;44.19;76.25;;
57439;Laerm;43282;47.188;8.896;2023-07-31T05:54:15;54.03;44.15;64.43;;
57439;Laerm;43282;47.188;8.896;2023-07-31T05:56:41;55.04;43.81;67.22;;
57439;Laerm;43282;47.188;8.896;2023-07-31T05:59:08;55.08;44.31;65.83;;
57439;Laerm;43282;47.188;8.896;2023-07-31T06:01:33;61.69;45.60;80.16;;
57439;Laerm;43282;47.188;8.896;2023-07-31T06:03:58;61.37;45.27;80.34;;
57439;Laerm;43282;47.188;8.896;2023-07-31T06:06:24;54.56;43.64;68.83;;
57439;Laerm;43282;47.188;8.896;2023-07-31T06:08:49;54.15;43.29;68.07;;
57439;Laerm;43282;47.188;8.896;2023-07-31T06:11:15;54.74;42.76;67.19;;
57439;Laerm;43282;47.188;8.896;2023-07-31T06:13:40;52.26;43.14;63.79;;
57439;Laerm;43282;47.188;8.896;2023-07-31T06:16:06;55.07;42.71;73.13;;
57439;Laerm;43282;47.188;8.896;2023-07-31T06:18:34;53.58;42.59;69.75;;
57439;Laerm;43282;47.188;8.896;2023-07-31T06:20:59;53.24;43.04;65.13;;
57439;Laerm;43282;47.188;8.896;2023-07-31T06:23:25;52.35;42.29;62.96;;
57439;Laerm;43282;47.188;8.896;2023-07-31T06:25:50;56.42;41.06;69.98;;
57439;Laerm;43282;47.188;8.896;2023-07-31T06:28:15;52.56;42.29;64.33;;
57439;Laerm;43282;47.188;8.896;2023-07-31T06:30:41;54.64;42.88;66.13;;
57439;Laerm;43282;47.188;8.896;2023-07-31T06:33:06;53.31;42.41;69.15;;
57439;Laerm;43282;47.188;8.896;2023-07-31T06:35:31;55.75;42.65;70.95;;
57439;Laerm;43282;47.188;8.896;2023-07-31T06:37:57;51.09;41.89;65.41;;
57439;Laerm;43282;47.188;8.896;2023-07-31T06:40:22;54.25;42.16;65.45;;
57439;Laerm;43282;47.188;8.896;2023-07-31T06:42:47;57.20;43.81;73.07;;
57439;Laerm;43282;47.188;8.896;2023-07-31T06:45:13;54.47;41.53;70.38;;
57439;Laerm;43282;47.188;8.896;2023-07-31T06:47:38;56.51;42.98;69.09;;
57439;Laerm;43282;47.188;8.896;2023-07-31T06:50:04;51.62;42.29;64.42;;
57439;Laerm;43282;47.188;8.896;2023-07-31T06:52:29;55.59;44.03;70.97;;
57439;Laerm;43282;47.188;8.896;2023-07-31T06:55:01;55.07;42.82;68.50;;
57439;Laerm;43282;47.188;8.896;2023-07-31T06:57:42;62.08;43.81;81.50;;
57439;Laerm;43282;47.188;8.896;2023-07-31T07:00:07;55.71;43.39;69.31;;
57439;Laerm;43282;47.188;8.896;2023-07-31T07:02:33;54.67;42.98;78.48;;
57439;Laerm;43282;47.188;8.896;2023-07-31T07:04:59;60.32;44.87;76.29;;
57439;Laerm;43282;47.188;8.896;2023-07-31T07:07:27;53.58;43.58;78.26;;
57439;Laerm;43282;47.188;8.896;2023-07-31T07:09:53;62.14;45.23;77.29;;
57439;Laerm;43282;47.188;8.896;2023-07-31T07:12:18;54.31;44.51;65.11;;
57439;Laerm;43282;47.188;8.896;2023-07-31T07:14:43;59.08;44.15;72.61;;
57439;Laerm;43282;47.188;8.896;2023-07-31T07:17:11;57.36;43.99;72.80;;
57439;Laerm;43282;47.188;8.896;2023-07-31T07:19:39;62.30;43.04;78.38;;
57439;Laerm;43282;47.188;8.896;2023-07-31T07:22:05;60.32;43.49;77.85;;
57439;Laerm;43282;47.188;8.896;2023-07-31T07:24:30;55.31;43.72;67.43;;
57439;Laerm;43282;47.188;8.896;2023-07-31T07:26:56;57.67;45.42;67.16;;
57439;Laerm;43282;47.188;8.896;2023-07-31T07:29:21;54.59;43.34;65.74;;
57439;Laerm;43282;47.188;8.896;2023-07-31T07:31:47;52.61;43.19;63.92;;
57439;Laerm;43282;47.188;8.896;2023-07-31T07:34:12;54.87;43.58;68.04;;
57439;Laerm;43282;47.188;8.896;2023-07-31T07:36:38;55.90;43.72;66.89;;
57439;Laerm;43282;47.188;8.896;2023-07-31T07:39:03;55.60;43.34;70.11;;
57439;Laerm;43282;47.188;8.896;2023-07-31T07:41:28;59.53;43.81;79.24;;
57439;Laerm;43282;47.188;8.896;2023-07-31T07:43:54;56.42;44.11;71.34;;
57439;Laerm;43282;47.188;8.896;2023-07-31T07:46:19;59.21;42.65;76.01;;
57439;Laerm;43282;47.188;8.896;2023-07-31T07:48:44;62.59;44.43;78.73;;
57439;Laerm;43282;47.188;8.896;2023-07-31T07:51:10;55.42;44.03;65.34;;
57439;Laerm;43282;47.188;8.896;2023-07-31T07:53:35;56.34;45.27;68.99;;
57439;Laerm;43282;47.188;8.896;2023-07-31T07:56:00;59.02;44.90;73.88;;
57439;Laerm;43282;47.188;8.896;2023-07-31T07:58:26;54.82;44.11;65.88;;
57439;Laerm;43282;47.188;8.896;2023-07-31T08:00:51;56.35;44.07;70.36;;
57439;Laerm;43282;47.188;8.896;2023-07-31T08:03:17;56.21;43.77;67.21;;
57439;Laerm;43282;47.188;8.896;2023-07-31T08:05:43;52.58;43.81;64.68;;
57439;Laerm;43282;47.188;8.896;2023-07-31T08:08:11;55.34;44.69;73.28;;
57439;Laerm;43282;47.188;8.896;2023-07-31T08:10:37;57.08;44.11;73.06;;
57439;Laerm;43282;47.188;8.896;2023-07-31T08:13:02;58.32;45.54;74.42;;
57439;Laerm;43282;47.188;8.896;2023-07-31T08:15:28;58.72;44.11;73.60;;
57439;Laerm;43282;47.188;8.896;2023-07-31T08:17:53;65.80;44.07;85.96;;
57439;Laerm;43282;47.188;8.896;2023-07-31T08:20:19;56.02;44.80;75.70;;
57439;Laerm;43282;47.188;8.896;2023-07-31T08:22:44;59.27;44.73;75.08;;
57439;Laerm;43282;47.188;8.896;2023-07-31T08:25:09;56.15;43.68;68.93;;
57439;Laerm;43282;47.188;8.896;2023-07-31T08:27:47;55.58;43.72;68.62;;
57439;Laerm;43282;47.188;8.896;2023-07-31T08:30:13;54.55;43.14;68.08;;
57439;Laerm;43282;47.188;8.896;2023-07-31T08:32:38;58.26;44.11;72.15;;
57439;Laerm;43282;47.188;8.896;2023-07-31T08:35:04;57.91;43.24;70.62;;
57439;Laerm;43282;47.188;8.896;2023-07-31T08:37:29;55.45;42.03;74.57;;
57439;Laerm;43282;47.188;8.896;2023-07-31T08:39:54;54.62;43.09;69.51;;
57439;Laerm;43282;47.188;8.896;2023-07-31T08:42:20;60.95;44.31;76.23;;
57439;Laerm;43282;47.188;8.896;2023-07-31T08:44:46;60.58;43.49;77.21;;
57439;Laerm;43282;47.188;8.896;2023-07-31T08:47:11;59.05;44.39;72.32;;
57439;Laerm;43282;47.188;8.896;2023-07-31T08:49:37;66.99;44.97;84.14;;
57439;Laerm;43282;47.188;8.896;2023-07-31T08:52:03;58.26;48.55;69.00;;
57439;Laerm;43282;47.188;8.896;2023-07-31T08:54:29;55.84;43.99;75.97;;
57439;Laerm;43282;47.188;8.896;2023-07-31T08:56:57;55.85;43.94;72.48;;
57439;Laerm;43282;47.188;8.896;2023-07-31T08:59:23;58.80;44.15;72.45;;
57439;Laerm;43282;47.188;8.896;2023-07-31T09:01:49;56.00;43.99;65.27;;
57439;Laerm;43282;47.188;8.896;2023-07-31T09:04:15;58.35;44.39;72.51;;
57439;Laerm;43282;47.188;8.896;2023-07-31T09:06:41;63.07;44.87;78.35;;
57439;Laerm;43282;47.188;8.896;2023-07-31T09:09:07;54.77;43.04;64.73;;
57439;Laerm;43282;47.188;8.896;2023-07-31T09:11:32;55.49;42.65;64.74;;
57439;Laerm;43282;47.188;8.896;2023-07-31T09:13:57;55.91;42.03;71.64;;
57439;Laerm;43282;47.188;8.896;2023-07-31T09:16:29;55.95;43.09;65.06;;
57439;Laerm;43282;47.188;8.896;2023-07-31T09:18:57;62.06;42.88;80.55;;
57439;Laerm;43282;47.188;8.896;2023-07-31T09:21:24;55.59;42.82;74.27;;
57439;Laerm;43282;47.188;8.896;2023-07-31T09:23:51;55.50;43.77;67.64;;
57439;Laerm;43282;47.188;8.896;2023-07-31T09:26:28;55.91;43.54;69.47;;
57439;Laerm;43282;47.188;8.896;2023-07-31T09:29:00;52.63;42.71;65.34;;
57439;Laerm;43282;47.188;8.896;2023-07-31T09:31:33;54.32;44.83;63.19;;
57439;Laerm;43282;47.188;8.896;2023-07-31T09:33:58;57.72;43.99;69.39;;
57439;Laerm;43282;47.188;8.896;2023-07-31T09:36:25;60.69;43.86;78.62;;
57439;Laerm;43282;47.188;8.896;2023-07-31T09:38:53;53.30;42.65;63.22;;
57439;Laerm;43282;47.188;8.896;2023-07-31T09:41:19;56.35;42.82;68.75;;
57439;Laerm;43282;47.188;8.896;2023-07-31T09:43:52;52.99;43.04;65.63;;
57439;Laerm;43282;47.188;8.896;2023-07-31T09:46:18;57.14;44.11;69.36;;
57439;Laerm;43282;47.188;8.896;2023-07-31T09:48:45;55.88;42.93;68.85;;
57439;Laerm;43282;47.188;8.896;2023-07-31T09:51:10;53.34;44.07;65.64;;
57439;Laerm;43282;47.188;8.896;2023-07-31T09:53:36;55.19;43.44;68.59;;
57439;Laerm;43282;47.188;8.896;2023-07-31T09:56:01;57.90;43.49;76.25;;
57439;Laerm;43282;47.188;8.896;2023-07-31T09:58:27;55.67;43.34;67.49;;
57439;Laerm;43282;47.188;8.896;2023-07-31T10:00:53;64.01;42.98;79.51;;
57439;Laerm;43282;47.188;8.896;2023-07-31T10:03:19;56.15;42.85;66.84;;
57439;Laerm;43282;47.188;8.896;2023-07-31T10:08:10;54.19;42.29;66.87;;
57439;Laerm;43282;47.188;8.896;2023-07-31T10:10:40;56.23;42.35;67.08;;
57439;Laerm;43282;47.188;8.896;2023-07-31T10:13:07;56.30;43.54;68.66;;
57439;Laerm;43282;47.188;8.896;2023-07-31T10:15:32;60.40;42.82;79.49;;
57439;Laerm;43282;47.188;8.896;2023-07-31T10:17:59;56.32;41.89;69.14;;
57439;Laerm;43282;47.188;8.896;2023-07-31T10:20:25;53.22;43.49;65.85;;
57439;Laerm;43282;47.188;8.896;2023-07-31T10:22:52;52.23;43.34;62.67;;
57439;Laerm;43282;47.188;8.896;2023-07-31T10:25:19;55.06;43.04;67.85;;
57439;Laerm;43282;47.188;8.896;2023-07-31T10:27:44;54.32;42.65;66.47;;
57439;Laerm;43282;47.188;8.896;2023-07-31T10:30:12;52.49;42.88;62.84;;
57439;Laerm;43282;47.188;8.896;2023-07-31T10:32:40;53.99;43.24;64.93;;
57439;Laerm;43282;47.188;8.896;2023-07-31T10:35:07;51.91;42.16;64.32;;
57439;Laerm;43282;47.188;8.896;2023-07-31T10:37:39;63.40;42.41;77.64;;
57439;Laerm;43282;47.188;8.896;2023-07-31T10:40:12;55.34;43.04;69.86;;
57439;Laerm;43282;47.188;8.896;2023-07-31T10:45:12;55.23;42.65;67.26;;
57439;Laerm;43282;47.188;8.896;2023-07-31T10:47:39;55.40;42.16;69.05;;
57439;Laerm;43282;47.188;8.896;2023-07-31T10:50:17;54.20;41.89;71.29;;
57439;Laerm;43282;47.188;8.896;2023-07-31T10:52:47;60.85;43.04;78.37;;
57439;Laerm;43282;47.188;8.896;2023-07-31T10:55:24;54.50;42.82;69.07;;
57439;Laerm;43282;47.188;8.896;2023-07-31T10:57:51;56.99;42.82;69.17;;
57439;Laerm;43282;47.188;8.896;2023-07-31T11:00:20;53.78;40.98;67.44;;
57439;Laerm;43282;47.188;8.896;2023-07-31T11:02:56;59.26;41.89;75.00;;
57439;Laerm;43282;47.188;8.896;2023-07-31T11:05:22;56.78;43.14;70.02;;
57439;Laerm;43282;47.188;8.896;2023-07-31T11:08:15;59.06;43.54;75.14;;
57439;Laerm;43282;47.188;8.896;2023-07-31T11:10:42;55.95;42.76;67.53;;
57439;Laerm;43282;47.188;8.896;2023-07-31T11:13:07;53.24;42.71;64.10;;
57439;Laerm;43282;47.188;8.896;2023-07-31T11:15:32;55.86;44.35;68.40;;
57439;Laerm;43282;47.188;8.896;2023-07-31T11:17:59;54.39;42.35;70.07;;
57439;Laerm;43282;47.188;8.896;2023-07-31T11:20:25;58.61;44.19;70.94;;
57439;Laerm;43282;47.188;8.896;2023-07-31T11:22:50;58.66;43.04;76.16;;
57439;Laerm;43282;47.188;8.896;2023-07-31T11:25:16;59.81;44.76;76.38;;
57439;Laerm;43282;47.188;8.896;2023-07-31T11:27:46;60.73;43.44;77.81;;
57439;Laerm;43282;47.188;8.896;2023-07-31T11:30:11;57.03;43.58;68.66;;
57439;Laerm;43282;47.188;8.896;2023-07-31T11:32:37;61.88;43.14;78.95;;
57439;Laerm;43282;47.188;8.896;2023-07-31T11:35:02;55.75;42.35;78.59;;
57439;Laerm;43282;47.188;8.896;2023-07-31T11:37:41;56.94;43.04;72.86;;
57439;Laerm;43282;47.188;8.896;2023-07-31T11:40:07;58.89;43.14;74.63;;
57439;Laerm;43282;47.188;8.896;2023-07-31T11:42:33;64.72;40.98;83.72;;
57439;Laerm;43282;47.188;8.896;2023-07-31T11:45:01;60.45;42.59;77.15;;
57439;Laerm;43282;47.188;8.896;2023-07-31T11:47:26;54.53;42.59;65.09;;
57439;Laerm;43282;47.188;8.896;2023-07-31T11:49:52;55.72;43.44;68.29;;
57439;Laerm;43282;47.188;8.896;2023-07-31T11:52:17;52.08;41.88;66.34;;
57439;Laerm;43282;47.188;8.896;2023-07-31T11:54:45;56.09;42.22;72.71;;
57439;Laerm;43282;47.188;8.896;2023-07-31T11:57:11;55.50;42.71;70.76;;
57439;Laerm;43282;47.188;8.896;2023-07-31T11:59:37;60.81;44.03;76.14;;
57439;Laerm;43282;47.188;8.896;2023-07-31T12:02:03;57.08;44.90;72.37;;
57439;Laerm;43282;47.188;8.896;2023-07-31T12:04:29;56.71;45.14;77.41;;
57439;Laerm;43282;47.188;8.896;2023-07-31T12:06:54;58.49;45.54;70.78;;
57439;Laerm;43282;47.188;8.896;2023-07-31T12:09:20;55.08;44.07;70.54;;
57439;Laerm;43282;47.188;8.896;2023-07-31T12:11:45;54.59;43.49;72.78;;
57439;Laerm;43282;47.188;8.896;2023-07-31T12:14:23;54.96;43.19;64.52;;
57439;Laerm;43282;47.188;8.896;2023-07-31T12:16:54;56.01;43.89;66.81;;
57439;Laerm;43282;47.188;8.896;2023-07-31T12:19:19;59.41;45.01;70.62;;
57439;Laerm;43282;47.188;8.896;2023-07-31T12:21:45;62.42;44.65;75.20;;
57439;Laerm;43282;47.188;8.896;2023-07-31T12:24:10;61.03;43.81;69.54;;
57439;Laerm;43282;47.188;8.896;2023-07-31T12:26:35;59.78;49.76;67.87;;
57439;Laerm;43282;47.188;8.896;2023-07-31T12:29:01;59.25;43.94;77.32;;
57439;Laerm;43282;47.188;8.896;2023-07-31T12:31:27;55.41;43.09;63.86;;
57439;Laerm;43282;47.188;8.896;2023-07-31T12:33:52;55.65;43.77;63.25;;
57439;Laerm;43282;47.188;8.896;2023-07-31T12:36:21;57.83;43.68;70.66;;
57439;Laerm;43282;47.188;8.896;2023-07-31T12:38:47;63.90;46.73;78.85;;
57439;Laerm;43282;47.188;8.896;2023-07-31T12:41:12;58.07;46.55;69.65;;
57439;Laerm;43282;47.188;8.896;2023-07-31T12:43:40;61.65;43.44;83.33;;
57439;Laerm;43282;47.188;8.896;2023-07-31T12:46:06;56.94;43.14;65.45;;
57439;Laerm;43282;47.188;8.896;2023-07-31T12:48:33;57.35;43.63;74.03;;
57439;Laerm;43282;47.188;8.896;2023-07-31T12:50:58;58.86;44.07;68.39;;
57439;Laerm;43282;47.188;8.896;2023-07-31T12:53:24;59.24;45.89;72.30;;
57439;Laerm;43282;47.188;8.896;2023-07-31T12:55:49;59.54;51.08;67.09;;
57439;Laerm;43282;47.188;8.896;2023-07-31T12:58:17;57.11;43.14;66.64;;
57439;Laerm;43282;47.188;8.896;2023-07-31T13:00:42;61.09;46.95;75.59;;
57439;Laerm;43282;47.188;8.896;2023-07-31T13:03:07;61.43;52.79;71.14;;
57439;Laerm;43282;47.188;8.896;2023-07-31T13:05:33;57.58;46.71;67.27;;
57439;Laerm;43282;47.188;8.896;2023-07-31T13:07:58;56.84;44.19;66.59;;
57439;Laerm;43282;47.188;8.896;2023-07-31T13:10:24;54.07;43.68;68.49;;
57439;Laerm;43282;47.188;8.896;2023-07-31T13:12:49;60.68;43.68;79.52;;
57439;Laerm;43282;47.188;8.896;2023-07-31T13:15:14;60.75;44.76;78.17;;
57439;Laerm;43282;47.188;8.896;2023-07-31T13:17:40;56.28;44.90;71.38;;
57439;Laerm;43282;47.188;8.896;2023-07-31T13:20:06;57.17;44.62;73.81;;
57439;Laerm;43282;47.188;8.896;2023-07-31T13:22:31;57.76;44.80;75.46;;
57439;Laerm;43282;47.188;8.896;2023-07-31T13:24:57;63.51;43.72;81.05;;
57439;Laerm;43282;47.188;8.896;2023-07-31T13:27:22;53.94;44.31;66.66;;
57439;Laerm;43282;47.188;8.896;2023-07-31T13:29:48;59.09;44.35;74.59;;
57439;Laerm;43282;47.188;8.896;2023-07-31T13:32:15;57.26;45.66;67.06;;
57439;Laerm;43282;47.188;8.896;2023-07-31T13:34:40;56.42;44.83;69.11;;
57439;Laerm;43282;47.188;8.896;2023-07-31T13:37:05;61.12;43.54;78.47;;
57439;Laerm;43282;47.188;8.896;2023-07-31T13:39:31;56.63;45.11;81.98;;
57439;Laerm;43282;47.188;8.896;2023-07-31T13:41:56;58.97;46.95;70.78;;
57439;Laerm;43282;47.188;8.896;2023-07-31T13:44:21;60.74;46.84;82.49;;
57439;Laerm;43282;47.188;8.896;2023-07-31T13:46:47;58.90;45.72;71.74;;
57439;Laerm;43282;47.188;8.896;2023-07-31T13:49:12;56.39;45.11;67.86;;